createdAt,value
2022-10-01T00:00:04.917Z,100585.75
2022-10-01T00:02:31.377Z,100587.44
2022-10-01T00:04:58.213Z,100580.88
2022-10-01T00:07:24.621Z,100574.41
2022-10-01T00:09:51.043Z,100587.88
2022-10-01T00:12:17.580Z,100580.09
2022-10-01T00:14:45.049Z,100573.00
2022-10-01T00:17:11.573Z,100574.59
2022-10-01T00:19:38.016Z,100581.06
2022-10-01T00:22:04.448Z,100578.38
2022-10-01T00:24:30.925Z,100569.00
2022-10-01T00:26:57.787Z,100577.28
2022-10-01T00:29:24.267Z,100578.41
2022-10-01T00:31:50.781Z,100573.75
2022-10-01T00:34:17.295Z,100567.75
2022-10-01T00:36:43.718Z,100564.56
2022-10-01T00:39:11.546Z,100560.06
2022-10-01T00:41:38.559Z,100561.09
2022-10-01T00:44:27.901Z,100561.53
2022-10-01T00:46:55.861Z,100558.28
2022-10-01T00:49:24.877Z,100563.03
2022-10-01T00:51:55.534Z,100561.31
2022-10-01T00:54:31.238Z,100561.75
2022-10-01T00:56:58.378Z,100568.16
2022-10-01T00:59:25.782Z,100559.03
2022-10-01T01:01:52.444Z,100559.06
2022-10-01T01:04:19.034Z,100562.34
2022-10-01T01:06:53.789Z,100557.47
2022-10-01T01:09:20.874Z,100553.22
2022-10-01T01:11:53.026Z,100558.31
2022-10-01T01:14:34.055Z,100555.75
2022-10-01T01:17:08.635Z,100547.94
2022-10-01T01:19:56.805Z,100555.50
2022-10-01T01:22:25.035Z,100549.81
2022-10-01T01:25:21.217Z,100551.00
2022-10-01T01:28:13.025Z,100546.06
2022-10-01T01:30:41.219Z,100550.31
2022-10-01T01:33:17.926Z,100545.63
2022-10-01T01:36:01.395Z,100540.13
2022-10-01T01:38:31.270Z,100540.97
2022-10-01T01:41:00.767Z,100551.63
2022-10-01T01:43:31.483Z,100544.09
2022-10-01T01:46:00.550Z,100543.03
2022-10-01T01:48:29.275Z,100535.59
2022-10-01T01:51:06.786Z,100542.66
2022-10-01T01:53:34.525Z,100542.84
2022-10-01T01:56:01.991Z,100543.19
2022-10-01T01:58:29.136Z,100542.03
2022-10-01T02:00:55.574Z,100536.59
2022-10-01T02:03:25.959Z,100539.94
2022-10-01T02:06:08.726Z,100535.72
2022-10-01T02:08:47.633Z,100543.34
2022-10-01T02:11:23.470Z,100529.75
2022-10-01T02:14:02.213Z,100527.78
2022-10-01T02:16:48.273Z,100528.66
2022-10-01T02:19:23.614Z,100532.91
2022-10-01T02:22:03.576Z,100534.28
2022-10-01T02:24:45.730Z,100529.03
2022-10-01T02:27:48.856Z,100535.75
2022-10-01T02:30:15.381Z,100529.47
2022-10-01T02:32:44.330Z,100524.91
2022-10-01T02:35:12.784Z,100519.25
2022-10-01T02:37:41.354Z,100518.22
2022-10-01T02:40:12.673Z,100518.75
2022-10-01T02:42:40.228Z,100515.69
2022-10-01T02:45:07.838Z,100521.56
2022-10-01T02:47:40.760Z,100513.75
2022-10-01T02:50:08.714Z,100523.03
2022-10-01T02:52:40.043Z,100527.06
2022-10-01T02:55:15.365Z,100522.94
2022-10-01T02:57:42.156Z,100523.47
2022-10-01T03:00:12.183Z,100522.19
2022-10-01T03:02:38.963Z,100514.63
2022-10-01T03:05:06.047Z,100509.72
2022-10-01T03:07:35.517Z,100512.31
2022-10-01T03:10:03.575Z,100498.06
2022-10-01T03:12:30.019Z,100499.13
2022-10-01T03:14:56.448Z,100495.28
2022-10-01T03:17:23.015Z,100497.91
2022-10-01T03:19:49.457Z,100495.78
2022-10-01T03:22:19.030Z,100491.84
2022-10-01T03:24:45.479Z,100494.75
2022-10-01T03:27:11.912Z,100486.47
2022-10-01T03:29:38.331Z,100491.34
2022-10-01T03:32:04.802Z,100486.47
2022-10-01T03:34:31.247Z,100492.50
2022-10-01T03:36:57.684Z,100488.97
2022-10-01T03:39:24.182Z,100488.03
2022-10-01T03:41:50.602Z,100480.97
2022-10-01T03:44:17.594Z,100486.66
2022-10-01T03:46:44.224Z,100482.50
2022-10-01T03:49:10.919Z,100482.03
2022-10-01T03:51:37.665Z,100480.78
2022-10-01T03:54:05.961Z,100482.28
2022-10-01T03:56:33.256Z,100484.03
2022-10-01T03:58:59.695Z,100481.22
2022-10-01T04:01:26.410Z,100479.06
2022-10-01T04:03:53.033Z,100473.38
2022-10-01T04:06:19.647Z,100469.59
2022-10-01T04:08:46.118Z,100470.69
2022-10-01T04:11:12.539Z,100476.09
2022-10-01T04:13:38.952Z,100470.09
2022-10-01T04:16:06.965Z,100468.06
2022-10-01T04:18:34.191Z,100474.50
2022-10-01T04:21:00.877Z,100468.38
2022-10-01T04:23:27.373Z,100467.47
2022-10-01T04:25:53.849Z,100464.72
2022-10-01T04:28:20.355Z,100472.72
2022-10-01T04:30:46.940Z,100468.28
2022-10-01T04:33:15.396Z,100469.69
2022-10-01T04:35:43.323Z,100477.03
2022-10-01T04:38:17.005Z,100472.00
2022-10-01T04:40:43.517Z,100473.50
2022-10-01T04:43:11.371Z,100474.91
2022-10-01T04:45:38.314Z,100473.66
2022-10-01T04:48:05.514Z,100473.50
2022-10-01T04:50:32.518Z,100471.50
2022-10-01T04:52:59.119Z,100474.44
2022-10-01T04:55:25.742Z,100472.44
2022-10-01T04:57:52.190Z,100471.81
2022-10-01T05:00:21.913Z,100468.44
2022-10-01T05:02:49.438Z,100477.03
2022-10-01T05:05:17.131Z,100473.03
2022-10-01T05:07:43.777Z,100477.97
2022-10-01T05:10:15.327Z,100477.50
2022-10-01T05:12:42.202Z,100479.34
2022-10-01T05:15:08.955Z,100482.19
2022-10-01T05:17:35.957Z,100472.81
2022-10-01T05:20:03.903Z,100478.97
2022-10-01T05:22:31.565Z,100483.47
2022-10-01T05:25:00.156Z,100483.94
2022-10-01T05:27:27.415Z,100479.56
2022-10-01T05:29:53.968Z,100475.63
2022-10-01T05:32:20.398Z,100466.06
2022-10-01T05:34:49.974Z,100477.47
2022-10-01T05:37:19.881Z,100467.19
2022-10-01T05:39:46.313Z,100468.88
2022-10-01T05:42:12.741Z,100464.38
2022-10-01T05:44:40.774Z,100468.72
2022-10-01T05:47:07.465Z,100458.69
2022-10-01T05:49:34.019Z,100469.16
2022-10-01T05:52:01.041Z,100469.00
2022-10-01T05:54:29.453Z,100464.84
2022-10-01T05:56:56.797Z,100458.22
2022-10-01T05:59:25.548Z,100457.88
2022-10-01T06:01:53.915Z,100454.81
2022-10-01T06:04:20.437Z,100463.53
2022-10-01T06:06:46.990Z,100457.03
2022-10-01T06:09:13.664Z,100453.84
2022-10-01T06:11:40.162Z,100451.88
2022-10-01T06:14:07.203Z,100449.06
2022-10-01T06:16:33.697Z,100444.72
2022-10-01T06:19:00.163Z,100447.94
2022-10-01T06:21:27.577Z,100439.09
2022-10-01T06:23:54.397Z,100454.94
2022-10-01T06:26:21.375Z,100445.47
2022-10-01T06:28:51.517Z,100431.03
2022-10-01T06:31:18.824Z,100442.69
2022-10-01T06:33:48.043Z,100426.22
2022-10-01T06:36:14.513Z,100428.97
2022-10-01T06:38:41.014Z,100423.78
2022-10-01T06:41:07.801Z,100429.44
2022-10-01T06:43:34.322Z,100424.69
2022-10-01T06:46:02.905Z,100424.50
2022-10-01T06:48:31.337Z,100426.47
2022-10-01T06:50:58.389Z,100426.69
2022-10-01T06:53:24.974Z,100420.22
2022-10-01T06:55:51.411Z,100423.38
2022-10-01T06:58:21.015Z,100414.91
2022-10-01T07:00:48.696Z,100419.97
2022-10-01T07:03:20.001Z,100409.41
2022-10-01T07:05:47.030Z,100410.66
2022-10-01T07:08:14.092Z,100407.66
2022-10-01T07:10:41.487Z,100408.03
2022-10-01T07:13:12.366Z,100414.06
2022-10-01T07:15:39.197Z,100405.22
2022-10-01T07:18:06.110Z,100402.53
2022-10-01T07:20:35.923Z,100398.22
2022-10-01T07:23:02.432Z,100401.06
2022-10-01T07:25:29.155Z,100393.16
2022-10-01T07:28:01.102Z,100393.06
2022-10-01T07:30:28.083Z,100396.53
2022-10-01T07:32:54.535Z,100387.88
2022-10-01T07:35:21.231Z,100384.16
2022-10-01T07:37:48.605Z,100379.97
2022-10-01T07:40:16.445Z,100384.16
2022-10-01T07:42:43.375Z,100371.97
2022-10-01T07:45:10.524Z,100370.00
2022-10-01T07:47:36.994Z,100358.88
2022-10-01T07:50:04.097Z,100357.81
2022-10-01T07:52:30.525Z,100362.88
2022-10-01T07:54:56.936Z,100363.50
2022-10-01T07:57:23.624Z,100361.09
2022-10-01T07:59:53.554Z,100354.28
2022-10-01T08:02:22.238Z,100354.38
2022-10-01T08:05:07.056Z,100351.91
2022-10-01T08:07:33.534Z,100359.31
2022-10-01T08:09:59.948Z,100352.91
2022-10-01T08:12:30.465Z,100349.72
2022-10-01T08:14:57.026Z,100343.50
2022-10-01T08:17:27.365Z,100343.38
2022-10-01T08:19:55.898Z,100343.31
2022-10-01T08:22:22.447Z,100339.22
2022-10-01T08:24:48.863Z,100334.56
2022-10-01T08:27:15.351Z,100333.59
2022-10-01T08:29:43.223Z,100324.81
2022-10-01T08:32:10.588Z,100326.41
2022-10-01T08:34:37.560Z,100328.22
2022-10-01T08:37:04.146Z,100319.50
2022-10-01T08:39:30.576Z,100323.94
2022-10-01T08:42:07.596Z,100324.00
2022-10-01T08:44:43.007Z,100316.72
2022-10-01T08:47:24.882Z,100327.03
2022-10-01T08:49:54.511Z,100317.47
2022-10-01T08:52:26.621Z,100307.06
2022-10-01T08:54:59.012Z,100307.81
2022-10-01T08:57:29.066Z,100302.25
2022-10-01T09:00:00.911Z,100307.59
2022-10-01T09:02:32.938Z,100286.97
2022-10-01T09:05:05.690Z,100291.81
2022-10-01T09:08:04.195Z,100290.13
2022-10-01T09:10:56.725Z,100282.88
2022-10-01T09:13:48.066Z,100274.34
2022-10-01T09:16:20.128Z,100277.78
2022-10-01T09:18:58.633Z,100294.84
2022-10-01T09:21:32.787Z,100272.53
2022-10-01T09:24:04.934Z,100270.84
2022-10-01T09:26:32.095Z,100266.53
2022-10-01T09:29:00.095Z,100255.84
2022-10-01T09:31:39.811Z,100263.72
2022-10-01T09:34:13.677Z,100250.03
2022-10-01T09:37:14.657Z,100249.22
2022-10-01T09:40:14.829Z,100238.38
2022-10-01T09:42:42.070Z,100245.56
2022-10-01T09:45:12.491Z,100235.19
2022-10-01T09:47:43.726Z,100232.66
2022-10-01T09:50:16.151Z,100234.22
2022-10-01T09:52:43.834Z,100228.13
2022-10-01T09:55:36.425Z,100228.47
2022-10-01T09:58:17.360Z,100228.00
2022-10-01T10:00:44.503Z,100230.59
2022-10-01T10:03:22.228Z,100220.72
2022-10-01T10:05:49.564Z,100221.16
2022-10-01T10:08:22.992Z,100208.47
2022-10-01T10:10:52.256Z,100205.63
2022-10-01T10:13:26.449Z,100207.13
2022-10-01T10:15:57.668Z,100209.78
2022-10-01T10:18:31.079Z,100206.03
2022-10-01T10:20:59.164Z,100191.66
2022-10-01T10:23:31.735Z,100197.63
2022-10-01T10:26:04.737Z,100197.47
2022-10-01T10:28:45.950Z,100189.19
2022-10-01T10:31:24.276Z,100189.91
2022-10-01T10:34:06.722Z,100187.69
2022-10-01T10:36:35.898Z,100178.66
2022-10-01T10:39:05.690Z,100183.97
2022-10-01T10:41:33.297Z,100165.09
2022-10-01T10:44:05.024Z,100165.06
2022-10-01T10:46:36.104Z,100161.25
2022-10-01T10:49:18.464Z,100152.56
2022-10-01T10:51:54.191Z,100161.31
2022-10-01T10:54:31.466Z,100148.78
2022-10-01T10:57:03.264Z,100148.47
2022-10-01T10:59:32.095Z,100146.16
2022-10-01T11:02:00.901Z,100137.09
2022-10-01T11:04:44.793Z,100133.63
2022-10-01T11:07:13.384Z,100133.56
2022-10-01T11:10:05.636Z,100132.84
2022-10-01T11:12:42.259Z,100125.66
2022-10-01T11:15:37.991Z,100118.06
2022-10-01T11:18:16.493Z,100142.31
2022-10-01T11:21:21.495Z,100114.94
2022-10-01T11:23:57.692Z,100112.66
2022-10-01T11:26:29.130Z,100108.94
2022-10-01T11:29:29.678Z,100099.03
2022-10-01T11:32:05.612Z,100099.84
2022-10-01T11:34:48.734Z,100094.91
2022-10-01T11:37:54.049Z,100082.44
2022-10-01T11:40:27.159Z,100090.03
2022-10-01T11:42:57.586Z,100080.91
2022-10-01T11:45:29.459Z,100076.34
2022-10-01T11:48:13.404Z,100072.19
2022-10-01T11:50:43.039Z,100065.00
2022-10-01T11:53:17.004Z,100061.56
2022-10-01T11:56:19.956Z,100066.03
2022-10-01T11:58:57.283Z,100072.13
2022-10-01T12:01:23.713Z,100067.19
2022-10-01T12:03:59.489Z,100056.16
2022-10-01T12:07:09.539Z,100059.59
2022-10-01T12:10:03.585Z,100049.38
2022-10-01T12:12:36.968Z,100045.97
2022-10-01T12:15:14.182Z,100052.09
2022-10-01T12:17:45.115Z,100036.56
2022-10-01T12:20:21.036Z,100030.50
2022-10-01T12:22:47.878Z,100037.66
2022-10-01T12:25:15.030Z,100036.09
2022-10-01T12:27:49.863Z,100031.56
2022-10-01T12:30:20.445Z,100022.47
2022-10-01T12:32:46.752Z,100026.69
2022-10-01T12:35:27.271Z,100015.66
2022-10-01T12:38:09.164Z,100018.38
2022-10-01T12:41:11.002Z,100016.88
2022-10-01T12:44:08.161Z,100005.47
2022-10-01T12:47:07.906Z,100002.06
2022-10-01T12:49:37.128Z,99994.13
2022-10-01T12:52:06.208Z,100002.06
2022-10-01T12:54:54.791Z,99991.09
2022-10-01T12:57:36.802Z,99980.47
2022-10-01T13:00:23.976Z,99983.13
2022-10-01T13:03:02.310Z,99989.56
2022-10-01T13:05:50.515Z,99989.19
2022-10-01T13:08:21.921Z,99973.25
2022-10-01T13:11:10.002Z,99971.38
2022-10-01T13:13:38.306Z,99970.22
2022-10-01T13:16:15.352Z,99974.78
2022-10-01T13:18:53.447Z,99968.69
2022-10-01T13:21:32.288Z,99975.50
2022-10-01T13:24:02.944Z,99966.78
2022-10-01T13:26:53.852Z,99957.31
2022-10-01T13:29:45.560Z,99960.34
2022-10-01T13:32:33.210Z,99942.53
2022-10-01T13:35:03.562Z,99938.72
2022-10-01T13:37:29.870Z,99943.28
2022-10-01T13:39:57.177Z,99938.00
2022-10-01T13:42:28.335Z,99950.88
2022-10-01T13:45:06.270Z,99945.16
2022-10-01T13:47:34.549Z,99937.59
2022-10-01T13:50:18.371Z,99935.69
2022-10-01T13:52:44.915Z,99939.47
2022-10-01T13:55:29.273Z,99940.22
2022-10-01T13:58:06.264Z,99935.69
2022-10-01T14:00:33.288Z,99935.28
2022-10-01T14:03:01.627Z,99934.91
2022-10-01T14:05:35.775Z,99927.69
2022-10-01T14:08:21.389Z,99937.53
2022-10-01T14:11:21.567Z,99920.84
2022-10-01T14:14:08.130Z,99915.56
2022-10-01T14:16:44.211Z,99921.25
2022-10-01T14:19:17.898Z,99916.34
2022-10-01T14:22:13.699Z,99908.00
2022-10-01T14:24:45.834Z,99923.53
2022-10-01T14:27:32.550Z,99908.00
2022-10-01T14:30:18.721Z,99898.91
2022-10-01T14:33:12.191Z,99900.44
2022-10-01T14:35:45.538Z,99896.66
2022-10-01T14:38:14.969Z,99896.66
2022-10-01T14:40:43.590Z,99896.66
2022-10-01T14:43:21.391Z,99894.38
2022-10-01T14:45:59.957Z,99897.03
2022-10-01T14:48:29.187Z,99898.16
2022-10-01T14:50:58.086Z,99896.22
2022-10-01T14:53:28.583Z,99889.44
2022-10-01T14:55:56.937Z,99894.72
2022-10-01T14:58:27.615Z,99886.38
2022-10-01T15:00:55.296Z,99889.03
2022-10-01T15:03:22.032Z,99879.56
2022-10-01T15:05:49.856Z,99880.31
2022-10-01T15:08:19.453Z,99876.16
2022-10-01T15:11:06.996Z,99871.94
2022-10-01T15:13:36.197Z,99872.34
2022-10-01T15:16:03.015Z,99877.22
2022-10-01T15:18:30.012Z,99865.47
2022-10-01T15:21:06.426Z,99872.69
2022-10-01T15:23:36.631Z,99868.50
2022-10-01T15:26:06.978Z,99868.09
2022-10-01T15:28:35.464Z,99867.38
2022-10-01T15:31:04.447Z,99862.81
2022-10-01T15:33:33.386Z,99850.72
2022-10-01T15:36:02.561Z,99850.72
2022-10-01T15:38:33.618Z,99853.72
2022-10-01T15:41:19.612Z,99858.66
2022-10-01T15:43:46.646Z,99848.41
2022-10-01T15:46:17.563Z,99844.25
2022-10-01T15:48:44.766Z,99841.22
2022-10-01T15:51:22.210Z,99840.88
2022-10-01T15:53:49.044Z,99830.66
2022-10-01T15:56:20.989Z,99836.66
2022-10-01T15:58:53.464Z,99833.63
2022-10-01T16:01:25.322Z,99832.47
2022-10-01T16:03:56.527Z,99835.50
2022-10-01T16:06:27.903Z,99829.06
2022-10-01T16:08:54.575Z,99832.84
2022-10-01T16:11:31.682Z,99833.63
2022-10-01T16:14:24.758Z,99831.34
2022-10-01T16:17:17.478Z,99821.47
2022-10-01T16:19:45.380Z,99819.59
2022-10-01T16:22:27.403Z,99821.47
2022-10-01T16:25:00.252Z,99820.69
2022-10-01T16:27:46.531Z,99816.91
2022-10-01T16:30:22.859Z,99809.34
2022-10-01T16:32:49.476Z,99812.72
2022-10-01T16:35:21.684Z,99808.19
2022-10-01T16:37:50.050Z,99807.38
2022-10-01T16:40:18.473Z,99801.72
2022-10-01T16:42:45.819Z,99806.22
2022-10-01T16:45:17.930Z,99801.69
2022-10-01T16:47:45.502Z,99791.47
2022-10-01T16:50:14.170Z,99774.81
2022-10-01T16:52:40.756Z,99772.91
2022-10-01T16:55:24.031Z,99774.41
2022-10-01T16:57:51.542Z,99777.00
2022-10-01T17:00:19.661Z,99775.09
2022-10-01T17:02:46.128Z,99777.69
2022-10-01T17:05:20.150Z,99765.22
2022-10-01T17:07:46.633Z,99768.59
2022-10-01T17:10:13.678Z,99763.31
2022-10-01T17:12:43.608Z,99765.16
2022-10-01T17:15:12.982Z,99767.09
2022-10-01T17:17:41.568Z,99772.34
2022-10-01T17:20:08.369Z,99773.00
2022-10-01T17:22:34.848Z,99775.25
2022-10-01T17:25:01.327Z,99773.00
2022-10-01T17:27:27.760Z,99776.38
2022-10-01T17:29:54.582Z,99774.84
2022-10-01T17:32:21.068Z,99764.66
2022-10-01T17:34:47.648Z,99775.94
2022-10-01T17:37:14.065Z,99764.66
2022-10-01T17:39:43.304Z,99764.63
2022-10-01T17:42:10.187Z,99769.94
2022-10-01T17:44:37.737Z,99770.66
2022-10-01T17:47:10.289Z,99763.84
2022-10-01T17:49:39.935Z,99758.59
2022-10-01T17:52:06.413Z,99756.31
2022-10-01T17:54:33.384Z,99760.44
2022-10-01T17:57:00.962Z,99761.59
2022-10-01T17:59:27.400Z,99753.28
2022-10-01T18:01:54.502Z,99755.94
2022-10-01T18:04:21.032Z,99763.50
2022-10-01T18:06:48.750Z,99756.25
2022-10-01T18:09:16.067Z,99766.09
2022-10-01T18:11:44.459Z,99757.03
2022-10-01T18:14:11.107Z,99753.63
2022-10-01T18:16:38.566Z,99752.47
2022-10-01T18:21:54.754Z,99750.91
2022-10-01T18:24:21.220Z,99754.69
2022-10-01T18:26:47.793Z,99744.13
2022-10-01T18:29:19.426Z,99751.25
2022-10-01T18:31:51.542Z,99756.88
2022-10-01T18:34:24.069Z,99761.00
2022-10-01T18:37:07.954Z,99768.91
2022-10-01T18:40:00.433Z,99758.28
2022-10-01T18:42:49.875Z,99746.25
2022-10-01T18:45:23.253Z,99750.41
2022-10-01T18:48:33.322Z,99745.88
2022-10-01T18:51:33.780Z,99747.38
2022-10-01T18:55:01.619Z,99735.31
2022-10-01T18:57:34.160Z,99749.19
2022-10-01T19:00:15.107Z,99729.97
2022-10-01T19:03:34.903Z,99738.28
2022-10-01T19:06:41.098Z,99732.97
2022-10-01T19:09:28.991Z,99729.56
2022-10-01T19:12:15.095Z,99726.50
2022-10-01T19:14:46.762Z,99729.41
2022-10-01T19:17:18.725Z,99727.16
2022-10-01T19:19:54.410Z,99714.72
2022-10-01T19:22:37.641Z,99721.81
2022-10-01T19:25:18.466Z,99724.41
2022-10-01T19:28:02.965Z,99723.66
2022-10-01T19:30:37.959Z,99723.59
2022-10-01T19:33:11.472Z,99731.41
2022-10-01T19:35:40.137Z,99728.28
2022-10-01T19:38:34.391Z,99724.56
2022-10-01T19:41:24.373Z,99727.06
2022-10-01T19:43:58.390Z,99722.91
2022-10-01T19:46:48.279Z,99727.78
2022-10-01T19:49:25.954Z,99724.69
2022-10-01T19:52:05.566Z,99721.66
2022-10-01T19:54:42.127Z,99730.75
2022-10-01T19:57:25.999Z,99724.63
2022-10-01T19:59:57.831Z,99729.63
2022-10-01T20:02:41.106Z,99733.72
2022-10-01T20:05:14.947Z,99734.16
2022-10-01T20:07:52.852Z,99735.81
2022-10-01T20:10:30.340Z,99733.41
2022-10-01T20:13:18.420Z,99729.59
2022-10-01T20:15:46.231Z,99737.47
2022-10-01T20:18:18.711Z,99745.66
2022-10-01T20:21:02.725Z,99735.84
2022-10-01T20:23:44.128Z,99738.88
2022-10-01T20:26:22.272Z,99738.13
2022-10-01T20:29:10.211Z,99739.56
2022-10-01T20:31:51.895Z,99739.81
2022-10-01T20:34:40.889Z,99736.13
2022-10-01T20:37:17.359Z,99736.50
2022-10-01T20:39:48.438Z,99749.56
2022-10-01T20:42:19.422Z,99737.91
2022-10-01T20:44:46.230Z,99737.53
2022-10-01T20:47:19.858Z,99743.97
2022-10-01T20:49:52.532Z,99741.84
2022-10-01T20:52:36.800Z,99731.47
2022-10-01T20:55:15.835Z,99729.75
2022-10-01T20:57:48.322Z,99732.41
2022-10-01T21:00:26.911Z,99730.16
2022-10-01T21:03:05.945Z,99731.97
2022-10-01T21:05:41.211Z,99729.75
2022-10-01T21:08:38.715Z,99736.50
2022-10-01T21:11:13.018Z,99734.91
2022-10-01T21:13:56.193Z,99730.66
2022-10-01T21:16:41.827Z,99729.16
2022-10-01T21:19:29.823Z,99737.06
2022-10-01T21:22:06.503Z,99729.19
2022-10-01T21:24:45.512Z,99729.25
2022-10-01T21:27:26.131Z,99730.75
2022-10-01T21:30:12.178Z,99739.34
2022-10-01T21:33:01.913Z,99738.78
2022-10-01T21:35:46.838Z,99734.69
2022-10-01T21:38:28.658Z,99731.28
2022-10-01T21:41:26.094Z,99735.03
2022-10-01T21:44:28.684Z,99739.44
2022-10-01T21:47:15.560Z,99742.31
2022-10-01T21:50:28.614Z,99739.56
2022-10-01T21:53:15.652Z,99730.34
2022-10-01T21:55:58.935Z,99743.22
2022-10-01T21:58:25.269Z,99739.41
2022-10-01T22:01:21.665Z,99734.25
2022-10-01T22:04:07.441Z,99741.75
2022-10-01T22:06:45.050Z,99738.66
2022-10-01T22:09:22.895Z,99738.97
2022-10-01T22:11:53.583Z,99740.06
2022-10-01T22:14:21.600Z,99738.97
2022-10-01T22:16:57.438Z,99743.16
2022-10-01T22:19:32.507Z,99741.06
2022-10-01T22:22:07.524Z,99743.50
2022-10-01T22:24:37.961Z,99745.50
2022-10-01T22:27:07.694Z,99750.41
2022-10-01T22:29:38.152Z,99745.16
2022-10-01T22:32:04.776Z,99743.97
2022-10-01T22:34:38.315Z,99746.50
2022-10-01T22:37:08.916Z,99741.16
2022-10-01T22:39:47.702Z,99752.13
2022-10-01T22:42:17.854Z,99751.41
2022-10-01T22:44:44.387Z,99751.41
2022-10-01T22:47:42.250Z,99754.03
2022-10-01T22:50:20.110Z,99750.16
2022-10-01T22:52:59.231Z,99750.03
2022-10-01T22:55:29.859Z,99747.22
2022-10-01T22:58:03.503Z,99754.47
2022-10-01T23:00:33.194Z,99750.78
2022-10-01T23:03:17.910Z,99748.97
2022-10-01T23:06:29.043Z,99744.75
2022-10-01T23:09:33.556Z,99754.06
2022-10-01T23:12:17.741Z,99750.72
2022-10-01T23:14:56.459Z,99753.00
2022-10-01T23:17:28.753Z,99749.78
2022-10-01T23:20:02.068Z,99752.28
2022-10-01T23:22:40.930Z,99750.47
2022-10-01T23:25:19.747Z,99754.72
2022-10-01T23:28:08.026Z,99755.78
2022-10-01T23:31:09.994Z,99749.16
2022-10-01T23:34:00.736Z,99748.19
2022-10-01T23:36:49.392Z,99752.00
2022-10-01T23:39:35.975Z,99759.09
2022-10-01T23:42:23.666Z,99759.72
2022-10-01T23:45:08.921Z,99765.59
2022-10-01T23:47:45.774Z,99759.44
2022-10-01T23:50:21.307Z,99757.16
2022-10-01T23:52:55.438Z,99749.16
2022-10-01T23:55:52.573Z,99754.97
2022-10-01T23:58:22.174Z,99756.16
